Nakusp, Canada
Current Conditions -  °F | °C
As of 3:42 PM on Saturday 25 Oct 2014 (Local Time) from CYRV Reporting Station
Light Rain Light Rain  
Wind Chill: 43°   Ceiling: 3400
Heat Index: 43°   Visibility: 9mi
Dew Point: 41°   Wind: 2mph
Humidity: 93%   Direction: NA
Pressure: 29.61"   Gusts: NA
Location:  50.24°N, 117.8°W
Report Text: CYRV 252242Z AUTO VRB02KT 9SM -RA BKN034 OVC065 06/05 A2961 RMK PCPN 0.5MM PAST HR SLP037
Loading
Personal Weather Stations






























Interactive Weather Map
Tropical Storm Tracking
New forecast layout! Learn more

10-Day Weather Forecast

Advertisements
Track Severe Weather on mobile